createdAt,value
2023-03-29T00:03:44.102Z,-1.88
2023-03-29T00:08:46.094Z,-1.96
2023-03-29T00:13:48.453Z,-1.96
2023-03-29T00:18:50.615Z,-2.03
2023-03-29T00:23:52.265Z,-2.07
2023-03-29T00:28:53.936Z,-2.07
2023-03-29T00:33:55.825Z,-1.97
2023-03-29T00:38:57.475Z,-1.87
2023-03-29T00:44:01.584Z,-1.73
2023-03-29T00:49:12.820Z,-1.57
2023-03-29T00:54:18.616Z,-1.50
2023-03-29T00:59:24.729Z,-1.44
2023-03-29T01:04:36.453Z,-1.34
2023-03-29T01:09:42.144Z,-1.25
2023-03-29T01:15:06.850Z,-1.22
2023-03-29T01:20:17.318Z,-1.24
2023-03-29T01:25:32.789Z,-1.24
2023-03-29T01:30:46.721Z,-1.16
2023-03-29T01:35:57.735Z,-1.14
2023-03-29T01:40:59.808Z,-1.10
2023-03-29T01:46:14.622Z,-1.00
2023-03-29T01:51:24.872Z,-0.93
2023-03-29T01:56:29.529Z,-0.92
2023-03-29T02:01:40.756Z,-0.92
2023-03-29T02:06:43.525Z,-0.90
2023-03-29T02:11:47.288Z,-0.83
2023-03-29T02:16:50.023Z,-0.76
2023-03-29T02:22:07.821Z,-0.78
2023-03-29T02:27:09.749Z,-0.84
2023-03-29T02:32:20.409Z,-0.76
2023-03-29T02:37:26.710Z,-0.71
2023-03-29T02:42:31.443Z,-0.67
2023-03-29T02:47:39.454Z,-0.72
2023-03-29T02:52:47.211Z,-0.66
2023-03-29T02:57:49.046Z,-0.75
2023-03-29T03:02:52.215Z,-0.70
2023-03-29T03:07:54.516Z,-0.65
2023-03-29T03:12:56.458Z,-0.67
2023-03-29T03:17:58.405Z,-0.69
2023-03-29T03:23:01.200Z,-0.74
2023-03-29T03:28:03.178Z,-0.68
2023-03-29T03:33:05.046Z,-0.65
2023-03-29T03:38:36.801Z,-0.56
2023-03-29T03:43:42.463Z,-0.50
2023-03-29T03:48:46.473Z,-0.47
2023-03-29T03:54:04.990Z,-0.41
2023-03-29T03:59:07.322Z,-0.36
2023-03-29T04:04:30.963Z,-0.26
2023-03-29T04:09:53.131Z,-0.28
2023-03-29T04:15:20.344Z,-0.20
2023-03-29T04:20:33.575Z,-0.15
2023-03-29T04:25:36.310Z,-0.04
2023-03-29T04:30:58.146Z,0.08
2023-03-29T04:36:11.456Z,0.18
2023-03-29T04:41:15.677Z,0.34
2023-03-29T04:46:17.756Z,0.43
2023-03-29T04:51:37.516Z,0.48
2023-03-29T04:56:40.112Z,0.67
2023-03-29T05:02:05.241Z,0.81
2023-03-29T05:07:07.636Z,0.89
2023-03-29T05:12:09.996Z,0.94
2023-03-29T05:17:27.487Z,1.11
2023-03-29T05:22:36.379Z,1.20
2023-03-29T05:27:38.276Z,1.37
2023-03-29T05:32:43.984Z,1.40
2023-03-29T05:37:49.771Z,1.44
2023-03-29T05:42:53.192Z,1.68
2023-03-29T05:47:55.701Z,2.00
2023-03-29T05:52:58.537Z,2.43
2023-03-29T05:58:01.175Z,2.62
2023-03-29T06:03:17.717Z,2.67
2023-03-29T06:08:23.484Z,2.63
2023-03-29T06:13:48.093Z,2.55
2023-03-29T06:18:52.383Z,2.47
2023-03-29T06:23:54.575Z,2.36
2023-03-29T06:28:58.304Z,2.34
2023-03-29T06:34:01.708Z,2.40
2023-03-29T06:39:27.058Z,2.60
2023-03-29T06:44:55.445Z,2.79
2023-03-29T06:49:58.826Z,2.90
2023-03-29T06:55:13.595Z,2.98
2023-03-29T07:00:19.686Z,2.99
2023-03-29T07:05:42.175Z,3.15
2023-03-29T07:10:52.883Z,3.36
2023-03-29T07:16:19.426Z,3.59
2023-03-29T07:21:24.235Z,3.60
2023-03-29T07:26:28.448Z,3.73
2023-03-29T07:31:35.907Z,3.95
2023-03-29T07:36:58.028Z,4.07
2023-03-29T07:41:59.986Z,4.16
2023-03-29T07:47:02.395Z,4.19
2023-03-29T07:52:04.771Z,4.39
2023-03-29T07:57:07.454Z,4.55
2023-03-29T08:02:16.168Z,4.55
2023-03-29T08:07:25.835Z,4.56
2023-03-29T08:12:30.156Z,5.02
2023-03-29T08:17:35.041Z,5.43
2023-03-29T08:22:38.532Z,5.49
2023-03-29T08:27:40.421Z,5.54
2023-03-29T08:32:47.733Z,5.54
2023-03-29T08:37:51.548Z,5.79
2023-03-29T08:43:12.499Z,6.12
2023-03-29T08:48:36.329Z,6.06
2023-03-29T08:53:48.512Z,6.09
2023-03-29T08:58:58.075Z,6.04
2023-03-29T09:04:09.154Z,6.18
2023-03-29T09:09:35.752Z,6.58
2023-03-29T09:15:06.818Z,7.13
2023-03-29T09:20:26.178Z,7.37
2023-03-29T09:25:52.521Z,7.63
2023-03-29T09:30:57.569Z,7.72
2023-03-29T09:36:03.193Z,7.87
2023-03-29T09:41:21.412Z,7.98
2023-03-29T09:46:42.101Z,8.27
2023-03-29T09:51:47.430Z,8.70
2023-03-29T09:56:49.736Z,8.57
2023-03-29T10:02:06.644Z,8.94
2023-03-29T10:07:20.643Z,9.56
2023-03-29T10:12:29.607Z,9.14
2023-03-29T10:17:40.376Z,9.02
2023-03-29T10:22:48.688Z,9.55
2023-03-29T10:27:50.764Z,9.47
2023-03-29T10:33:00.231Z,9.88
2023-03-29T10:38:07.787Z,10.23
2023-03-29T10:43:21.764Z,10.30
2023-03-29T10:48:31.394Z,10.57
2023-03-29T10:53:36.538Z,10.74
2023-03-29T10:59:14.563Z,11.24
2023-03-29T11:04:34.491Z,11.43
2023-03-29T11:09:49.918Z,10.99
2023-03-29T11:15:10.026Z,10.61
2023-03-29T11:20:18.340Z,10.51
2023-03-29T11:25:35.681Z,10.32
2023-03-29T11:31:28.309Z,10.14
2023-03-29T11:36:51.263Z,9.93
2023-03-29T11:41:57.362Z,9.89
2023-03-29T11:47:18.677Z,9.91
2023-03-29T11:52:28.287Z,9.94
2023-03-29T11:57:56.929Z,9.83
2023-03-29T12:03:22.020Z,10.44
2023-03-29T12:08:31.632Z,11.14
2023-03-29T12:13:56.582Z,12.06
2023-03-29T12:19:04.660Z,11.83
2023-03-29T12:24:06.749Z,11.14
2023-03-29T12:29:11.542Z,10.99
2023-03-29T12:34:22.354Z,12.18
2023-03-29T12:39:45.130Z,13.26
2023-03-29T12:45:06.371Z,13.38
2023-03-29T12:50:22.658Z,12.68
2023-03-29T12:55:34.796Z,13.83
2023-03-29T13:00:36.653Z,13.69
2023-03-29T13:05:38.576Z,13.05
2023-03-29T13:10:42.883Z,12.18
2023-03-29T13:15:46.245Z,11.56
2023-03-29T13:21:04.496Z,11.19
2023-03-29T13:26:31.607Z,11.47
2023-03-29T13:32:06.586Z,11.73
2023-03-29T13:37:34.168Z,11.90
2023-03-29T13:42:36.444Z,13.73
2023-03-29T13:47:54.850Z,14.25
2023-03-29T13:53:28.102Z,14.13
2023-03-29T13:58:49.895Z,13.16
2023-03-29T14:03:52.927Z,12.67
2023-03-29T14:08:55.472Z,12.13
2023-03-29T14:13:59.699Z,11.97
2023-03-29T14:19:13.516Z,12.03
2023-03-29T14:24:26.027Z,12.13
2023-03-29T14:29:32.918Z,12.38
2023-03-29T14:34:34.774Z,13.79
2023-03-29T14:39:37.631Z,13.09
2023-03-29T14:44:39.606Z,12.95
2023-03-29T14:49:41.916Z,12.81
2023-03-29T14:54:48.326Z,12.25
2023-03-29T15:00:14.699Z,12.24
2023-03-29T15:05:47.424Z,12.20
2023-03-29T15:10:49.563Z,12.08
2023-03-29T15:15:54.261Z,12.10
2023-03-29T15:20:56.218Z,12.37
2023-03-29T15:26:06.815Z,12.35
2023-03-29T15:31:14.562Z,12.08
2023-03-29T15:36:16.724Z,12.09
2023-03-29T15:41:18.638Z,12.11
2023-03-29T15:46:20.539Z,12.09
2023-03-29T15:51:22.411Z,11.77
2023-03-29T15:56:24.916Z,11.54
2023-03-29T16:01:36.680Z,11.26
2023-03-29T16:06:38.690Z,11.18
2023-03-29T16:11:42.434Z,11.14
2023-03-29T16:16:44.516Z,11.05
2023-03-29T16:21:46.387Z,10.99
2023-03-29T16:26:48.851Z,10.99
2023-03-29T16:31:52.980Z,10.90
2023-03-29T16:36:55.171Z,10.88
2023-03-29T16:41:56.971Z,10.82
2023-03-29T16:46:58.822Z,10.73
2023-03-29T16:52:01.022Z,10.73
2023-03-29T16:57:02.860Z,10.70
2023-03-29T17:02:04.786Z,10.47
2023-03-29T17:07:07.798Z,10.45
2023-03-29T17:12:09.658Z,10.33
2023-03-29T17:17:11.489Z,10.21
2023-03-29T17:22:13.341Z,10.10
2023-03-29T17:27:15.502Z,10.00
2023-03-29T17:32:17.327Z,9.84
2023-03-29T17:37:21.368Z,9.64
2023-03-29T17:42:23.206Z,9.44
2023-03-29T17:47:25.050Z,9.33
2023-03-29T17:52:27.232Z,9.22
2023-03-29T17:57:29.064Z,9.14
2023-03-29T18:02:31.011Z,9.04
2023-03-29T18:07:32.865Z,8.90
2023-03-29T18:12:34.679Z,8.73
2023-03-29T18:17:36.758Z,8.75
2023-03-29T18:22:40.088Z,8.66
2023-03-29T18:27:41.977Z,8.60
2023-03-29T18:32:43.946Z,8.67
2023-03-29T18:37:45.781Z,8.82
2023-03-29T18:42:47.575Z,8.88
2023-03-29T18:47:50.720Z,8.92
2023-03-29T18:52:52.710Z,8.86
2023-03-29T18:57:54.708Z,8.68
2023-03-29T19:02:56.647Z,8.33
2023-03-29T19:07:59.327Z,8.14
2023-03-29T19:13:01.154Z,8.09
2023-03-29T19:18:03.085Z,7.81
2023-03-29T19:23:05.060Z,7.64
2023-03-29T19:28:06.895Z,7.71
2023-03-29T19:33:08.781Z,7.59
2023-03-29T19:38:10.979Z,7.56
2023-03-29T19:43:19.432Z,7.48
2023-03-29T19:48:23.160Z,7.52
2023-03-29T19:53:27.129Z,7.61
2023-03-29T19:58:28.955Z,7.85
2023-03-29T20:03:34.048Z,7.77
2023-03-29T20:08:38.905Z,7.56
2023-03-29T20:13:42.610Z,7.44
2023-03-29T20:18:45.370Z,7.27
2023-03-29T20:23:47.497Z,7.29
2023-03-29T20:28:49.846Z,7.33
2023-03-29T20:33:51.659Z,7.08
2023-03-29T20:38:56.241Z,6.83
2023-03-29T20:43:58.604Z,6.74
2023-03-29T20:49:01.880Z,6.60
2023-03-29T20:54:05.818Z,6.38
2023-03-29T20:59:10.773Z,6.24
2023-03-29T21:04:13.108Z,6.15
2023-03-29T21:09:15.277Z,6.07
2023-03-29T21:14:21.327Z,5.95
2023-03-29T21:19:24.264Z,5.76
2023-03-29T21:24:26.228Z,5.72
2023-03-29T21:29:28.408Z,5.79
2023-03-29T21:34:30.469Z,5.70
2023-03-29T21:39:32.294Z,5.64
2023-03-29T21:44:34.553Z,5.58
2023-03-29T21:49:36.501Z,5.73
2023-03-29T21:54:38.315Z,5.86
2023-03-29T21:59:40.272Z,5.99
2023-03-29T22:04:42.090Z,6.08
2023-03-29T22:09:44.090Z,6.24
2023-03-29T22:14:45.981Z,6.50
2023-03-29T22:19:48.039Z,6.98
2023-03-29T22:24:55.298Z,7.00
2023-03-29T22:29:58.626Z,7.18
2023-03-29T22:35:00.466Z,7.33
2023-03-29T22:40:02.308Z,7.44
2023-03-29T22:45:05.188Z,7.36
2023-03-29T22:50:07.602Z,7.30
2023-03-29T22:55:09.584Z,7.04
2023-03-29T23:00:13.249Z,6.86
2023-03-29T23:05:15.196Z,6.78
2023-03-29T23:10:17.170Z,6.69
2023-03-29T23:15:22.920Z,6.69
2023-03-29T23:20:24.760Z,6.70
2023-03-29T23:25:27.615Z,6.73
2023-03-29T23:30:32.137Z,6.76
2023-03-29T23:35:33.990Z,7.00
2023-03-29T23:40:35.817Z,6.94
2023-03-29T23:45:37.668Z,6.92
2023-03-29T23:50:39.481Z,6.92
2023-03-29T23:55:42.094Z,6.87
